Terminal Aerodrome Forecast
Issued by NWS

Home | Current Version | Previous Version | Graphics & Text | Print | Product List | Glossary On
Versions: 1 2 3 4 5 6 7 8 9 10 11 12 13 14 15
180
FTUS42 KMHX 231741
TAFISO
TAF
KISO 231741Z 2318/2418 23011G20KT P6SM SCT035
     FM232300 21012G20KT P6SM SCT200
     FM241400 25011KT P6SM BKN070
      AMD LTD TO CLD VIS AND WIND=

USA.gov is the U.S. government's official web portal to all federal, state and local government web resources and services.